Terminal Aerodrome Forecast
Issued by NWS

Home | Current Version | Previous Version | Graphics & Text | Print | Product List | Glossary On
Versions: 1 2 3 4 5 6 7 8 9 10 11 12 13 14 15 16
377
FTUS43 KLSX 191550 AAB
TAFSUS
TAF AMD
KSUS 191550Z 1916/2012 09003KT 3SM BR BKN005
     FM191700 VRB03KT P6SM SCT010
     FM191800 VRB05KT P6SM SKC=

USA.gov is the U.S. government's official web portal to all federal, state and local government web resources and services.